createdAt,value
2018-12-21T00:01:56.406Z,1.47
2018-12-21T00:04:23.839Z,1.77
2018-12-21T00:06:51.307Z,1.57
2018-12-21T00:09:18.762Z,1.47
2018-12-21T00:11:46.233Z,1.70
2018-12-21T00:14:13.675Z,1.73
2018-12-21T00:16:41.175Z,1.70
2018-12-21T00:19:08.626Z,1.63
2018-12-21T00:21:36.087Z,1.60
2018-12-21T00:24:03.583Z,1.60
2018-12-21T00:26:31.059Z,1.70
2018-12-21T00:28:58.524Z,1.77
2018-12-21T00:31:31.562Z,1.40
2018-12-21T00:34:04.735Z,1.50
2018-12-21T00:36:37.952Z,2.00
2018-12-21T00:39:11.583Z,1.50
2018-12-21T00:41:38.771Z,1.53
2018-12-21T00:44:08.220Z,1.50
2018-12-21T00:46:37.616Z,1.47
2018-12-21T00:49:05.105Z,1.40
2018-12-21T00:51:32.614Z,1.50
2018-12-21T00:54:00.112Z,1.37
2018-12-21T00:56:27.660Z,1.80
2018-12-21T00:58:55.227Z,1.90
2018-12-21T01:01:22.729Z,1.40
2018-12-21T01:03:50.165Z,1.37
2018-12-21T01:06:17.619Z,1.73
2018-12-21T01:08:45.096Z,1.53
2018-12-21T01:11:12.563Z,1.83
2018-12-21T01:13:40.038Z,1.67
2018-12-21T01:16:07.489Z,1.50
2018-12-21T01:18:34.989Z,1.40
2018-12-21T01:21:02.489Z,1.67
2018-12-21T01:23:29.958Z,1.63
2018-12-21T01:25:57.407Z,2.37
2018-12-21T01:28:24.866Z,1.47
2018-12-21T01:30:52.323Z,1.90
2018-12-21T01:33:19.800Z,1.43
2018-12-21T01:35:47.252Z,1.50
2018-12-21T01:38:14.706Z,1.87
2018-12-21T01:40:42.162Z,1.30
2018-12-21T01:43:09.618Z,1.50
2018-12-21T01:45:37.090Z,2.27
2018-12-21T01:48:04.594Z,1.57
2018-12-21T01:50:32.038Z,1.63
2018-12-21T01:52:59.528Z,1.20
2018-12-21T01:55:27.039Z,1.37
2018-12-21T01:57:54.509Z,1.60
2018-12-21T02:00:21.974Z,1.30
2018-12-21T02:02:49.436Z,1.53
2018-12-21T02:05:16.945Z,1.63
2018-12-21T02:07:44.408Z,1.10
2018-12-21T02:10:11.925Z,1.50
2018-12-21T02:12:39.366Z,1.90
2018-12-21T02:15:06.926Z,1.27
2018-12-21T02:17:34.395Z,1.60
2018-12-21T02:20:01.895Z,1.03
2018-12-21T02:22:29.348Z,1.87
2018-12-21T02:24:56.960Z,1.57
2018-12-21T02:27:24.407Z,1.20
2018-12-21T02:29:51.871Z,1.50
2018-12-21T02:32:19.317Z,1.90
2018-12-21T02:34:46.829Z,1.50
2018-12-21T02:37:14.321Z,1.40
2018-12-21T02:39:41.779Z,1.30
2018-12-21T02:42:09.256Z,1.30
2018-12-21T02:44:36.717Z,1.23
2018-12-21T02:47:04.255Z,1.20
2018-12-21T02:49:31.761Z,1.20
2018-12-21T02:52:05.251Z,1.57
2018-12-21T02:54:28.657Z,1.67
2018-12-21T02:56:56.111Z,1.37
2018-12-21T02:59:23.566Z,1.30
2018-12-21T03:01:51.024Z,1.50
2018-12-21T03:04:18.477Z,1.30
2018-12-21T03:06:45.943Z,0.90
2018-12-21T03:09:13.388Z,1.50
2018-12-21T03:11:40.855Z,1.50
2018-12-21T03:14:08.403Z,1.40
2018-12-21T03:16:35.886Z,1.63
2018-12-21T03:19:03.336Z,1.60
2018-12-21T03:21:30.803Z,1.10
2018-12-21T03:23:58.262Z,1.30
2018-12-21T03:26:25.728Z,1.20
2018-12-21T03:28:53.172Z,1.23
2018-12-21T03:31:20.624Z,1.40
2018-12-21T03:33:48.083Z,1.60
2018-12-21T03:36:15.539Z,1.60
2018-12-21T03:38:42.971Z,1.40
2018-12-21T03:41:10.434Z,1.17
2018-12-21T03:43:37.886Z,1.67
2018-12-21T03:46:05.422Z,1.17
2018-12-21T03:48:32.881Z,1.50
2018-12-21T03:51:00.347Z,1.40
2018-12-21T03:53:27.798Z,1.40
2018-12-21T03:55:55.249Z,1.30
2018-12-21T03:58:22.697Z,1.47
2018-12-21T04:00:50.162Z,1.50
2018-12-21T04:03:17.605Z,1.33
2018-12-21T04:05:45.061Z,1.13
2018-12-21T04:08:12.526Z,1.57
2018-12-21T04:10:40.098Z,1.33
2018-12-21T04:13:07.560Z,1.00
2018-12-21T04:15:35.017Z,1.00
2018-12-21T04:18:02.499Z,1.20
2018-12-21T04:20:30.022Z,1.20
2018-12-21T04:22:57.513Z,1.50
2018-12-21T04:25:25.000Z,1.30
2018-12-21T04:27:52.502Z,1.30
2018-12-21T04:30:19.960Z,1.00
2018-12-21T04:32:47.414Z,1.30
2018-12-21T04:35:14.886Z,1.13
2018-12-21T04:37:42.346Z,1.00
2018-12-21T04:40:09.806Z,1.20
2018-12-21T04:42:37.344Z,1.23
2018-12-21T04:45:05.475Z,1.17
2018-12-21T04:47:32.930Z,1.10
2018-12-21T04:50:00.386Z,1.10
2018-12-21T04:52:27.825Z,1.20
2018-12-21T04:54:55.293Z,1.27
2018-12-21T04:57:22.811Z,1.40
2018-12-21T04:59:50.249Z,1.80
2018-12-21T05:02:17.798Z,1.20
2018-12-21T05:04:45.280Z,1.50
2018-12-21T05:07:12.985Z,1.53
2018-12-21T05:09:40.621Z,1.70
2018-12-21T05:12:08.057Z,1.10
2018-12-21T05:14:35.531Z,1.67
2018-12-21T05:17:02.980Z,1.30
2018-12-21T05:19:30.503Z,1.10
2018-12-21T05:21:57.972Z,1.10
2018-12-21T05:24:25.442Z,1.30
2018-12-21T05:26:52.885Z,1.10
2018-12-21T05:29:20.344Z,1.20
2018-12-21T05:31:47.835Z,1.20
2018-12-21T05:34:15.288Z,0.90
2018-12-21T05:36:42.729Z,1.17
2018-12-21T05:39:10.174Z,0.90
2018-12-21T05:41:37.641Z,1.27
2018-12-21T05:44:05.174Z,1.57
2018-12-21T05:46:32.641Z,1.17
2018-12-21T05:49:00.101Z,0.80
2018-12-21T05:51:27.592Z,1.00
2018-12-21T05:53:55.044Z,1.10
2018-12-21T05:56:22.487Z,0.90
2018-12-21T05:58:49.940Z,1.00
2018-12-21T06:01:17.394Z,1.17
2018-12-21T06:03:44.907Z,0.80
2018-12-21T06:06:12.351Z,1.20
2018-12-21T06:08:39.820Z,1.17
2018-12-21T06:11:07.261Z,1.27
2018-12-21T06:13:34.715Z,1.00
2018-12-21T06:16:02.182Z,0.93
2018-12-21T06:18:29.629Z,1.40
2018-12-21T06:20:57.083Z,1.43
2018-12-21T06:23:24.533Z,1.03
2018-12-21T06:25:51.990Z,1.00
2018-12-21T06:28:19.430Z,1.30
2018-12-21T06:30:46.892Z,0.90
2018-12-21T06:33:14.333Z,0.80
2018-12-21T06:35:41.789Z,0.80
2018-12-21T06:38:09.245Z,0.80
2018-12-21T06:40:36.740Z,1.23
2018-12-21T06:43:04.182Z,0.97
2018-12-21T06:45:31.985Z,0.83
2018-12-21T06:47:59.498Z,1.17
2018-12-21T06:50:26.990Z,1.00
2018-12-21T06:52:54.425Z,1.03
2018-12-21T06:55:21.885Z,1.03
2018-12-21T06:57:50.382Z,1.10
2018-12-21T07:00:17.838Z,1.20
2018-12-21T07:02:45.289Z,1.13
2018-12-21T07:05:12.772Z,1.20
2018-12-21T07:07:40.223Z,1.00
2018-12-21T07:10:09.365Z,1.10
2018-12-21T07:12:36.809Z,1.00
2018-12-21T07:15:05.579Z,0.90
2018-12-21T07:17:33.027Z,0.93
2018-12-21T07:20:01.455Z,0.80
2018-12-21T07:22:28.917Z,0.77
2018-12-21T07:24:56.399Z,1.00
2018-12-21T07:27:23.897Z,1.00
2018-12-21T07:29:51.344Z,1.10
2018-12-21T07:32:18.806Z,1.40
2018-12-21T07:34:46.258Z,0.90
2018-12-21T07:37:13.712Z,1.63
2018-12-21T07:39:41.150Z,1.00
2018-12-21T07:42:08.601Z,0.80
2018-12-21T07:44:36.050Z,1.00
2018-12-21T07:47:03.576Z,1.00
2018-12-21T07:49:31.085Z,1.13
2018-12-21T07:51:58.542Z,0.80
2018-12-21T07:54:25.982Z,0.80
2018-12-21T07:56:53.486Z,1.00
2018-12-21T07:59:20.936Z,1.10
2018-12-21T08:01:48.401Z,1.63
2018-12-21T08:04:15.854Z,1.30
2018-12-21T08:06:43.305Z,0.93
2018-12-21T08:09:10.755Z,0.90
2018-12-21T08:11:38.223Z,0.90
2018-12-21T08:14:05.664Z,0.90
2018-12-21T08:16:33.104Z,1.40
2018-12-21T08:19:00.562Z,0.90
2018-12-21T08:21:28.018Z,1.20
2018-12-21T08:23:55.570Z,1.00
2018-12-21T08:26:23.009Z,0.80
2018-12-21T08:28:50.463Z,1.50
2018-12-21T08:31:17.903Z,0.80
2018-12-21T08:33:45.377Z,1.00
2018-12-21T08:36:12.877Z,1.00
2018-12-21T08:38:40.366Z,0.60
2018-12-21T08:41:07.810Z,0.80
2018-12-21T08:43:35.252Z,0.70
2018-12-21T08:46:02.752Z,0.70
2018-12-21T08:48:30.214Z,0.80
2018-12-21T08:50:57.660Z,0.60
2018-12-21T08:53:25.124Z,0.70
2018-12-21T08:55:52.577Z,1.20
2018-12-21T08:58:20.031Z,0.70
2018-12-21T09:00:47.478Z,0.70
2018-12-21T09:03:14.938Z,0.70
2018-12-21T09:05:42.387Z,0.77
2018-12-21T09:08:09.841Z,0.80
2018-12-21T09:10:37.312Z,0.70
2018-12-21T09:13:04.759Z,0.83
2018-12-21T09:15:32.217Z,0.80
2018-12-21T09:17:59.676Z,0.83
2018-12-21T09:20:27.125Z,0.70
2018-12-21T09:22:54.602Z,0.60
2018-12-21T09:25:22.120Z,0.60
2018-12-21T09:27:49.702Z,0.83
2018-12-21T09:30:17.169Z,0.80
2018-12-21T09:32:44.613Z,0.70
2018-12-21T09:35:12.076Z,0.93
2018-12-21T09:37:39.563Z,0.73
2018-12-21T09:40:08.525Z,0.80
2018-12-21T09:42:35.981Z,0.90
2018-12-21T09:45:03.517Z,0.80
2018-12-21T09:47:30.968Z,0.80
2018-12-21T09:49:58.436Z,0.80
2018-12-21T09:52:25.881Z,0.70
2018-12-21T09:54:53.351Z,0.80
2018-12-21T09:57:20.797Z,0.90
2018-12-21T09:59:48.249Z,0.80
2018-12-21T10:02:15.749Z,0.90
2018-12-21T10:04:43.210Z,1.17
2018-12-21T10:07:10.637Z,0.70
2018-12-21T10:09:38.113Z,1.00
2018-12-21T10:12:05.544Z,0.67
2018-12-21T10:14:33.014Z,0.93
2018-12-21T10:17:00.455Z,0.80
2018-12-21T10:19:27.905Z,0.70
2018-12-21T10:21:55.459Z,0.70
2018-12-21T10:24:23.132Z,0.90
2018-12-21T10:26:50.573Z,0.83
2018-12-21T10:29:18.043Z,0.70
2018-12-21T10:31:45.505Z,0.80
2018-12-21T10:34:12.952Z,0.90
2018-12-21T10:36:40.402Z,0.80
2018-12-21T10:39:07.860Z,0.87
2018-12-21T10:41:35.391Z,0.70
2018-12-21T10:44:02.913Z,0.90
2018-12-21T10:46:30.367Z,0.87
2018-12-21T10:48:57.828Z,0.70
2018-12-21T10:51:25.272Z,0.80
2018-12-21T10:53:52.770Z,1.00
2018-12-21T10:56:20.217Z,0.70
2018-12-21T10:58:49.803Z,0.90
2018-12-21T11:01:17.162Z,0.60
2018-12-21T11:03:44.602Z,0.60
2018-12-21T11:06:12.053Z,0.60
2018-12-21T11:08:39.516Z,0.80
2018-12-21T11:11:06.976Z,0.70
2018-12-21T11:13:34.426Z,0.63
2018-12-21T11:16:01.917Z,0.60
2018-12-21T11:18:29.371Z,0.70
2018-12-21T11:20:56.985Z,0.70
2018-12-21T11:23:24.444Z,0.60
2018-12-21T11:25:52.002Z,0.60
2018-12-21T11:28:25.287Z,0.60
2018-12-21T11:30:48.888Z,0.60
2018-12-21T11:33:16.330Z,0.60
2018-12-21T11:35:43.782Z,0.60
2018-12-21T11:38:11.226Z,0.60
2018-12-21T11:40:38.687Z,0.70
2018-12-21T11:43:06.173Z,0.60
2018-12-21T11:45:33.627Z,0.70
2018-12-21T11:48:01.077Z,0.70
2018-12-21T11:50:28.572Z,0.70
2018-12-21T11:52:56.059Z,0.50
2018-12-21T11:55:23.580Z,0.63
2018-12-21T11:57:51.046Z,0.73
2018-12-21T12:00:18.498Z,0.80
2018-12-21T12:02:46.063Z,0.50
2018-12-21T12:05:13.505Z,0.60
2018-12-21T12:07:40.949Z,0.50
2018-12-21T12:10:08.444Z,0.73
2018-12-21T12:12:35.892Z,0.53
2018-12-21T12:15:05.046Z,0.80
2018-12-21T12:17:32.506Z,0.60
2018-12-21T12:20:00.272Z,0.50
2018-12-21T12:22:27.866Z,0.60
2018-12-21T12:24:55.477Z,0.60
2018-12-21T12:27:23.065Z,0.60
2018-12-21T12:29:51.313Z,0.57
2018-12-21T12:32:18.885Z,0.50
2018-12-21T12:34:46.328Z,0.50
2018-12-21T12:37:13.786Z,0.50
2018-12-21T12:39:41.229Z,0.53
2018-12-21T12:42:08.691Z,0.57
2018-12-21T12:44:36.135Z,0.60
2018-12-21T12:47:03.646Z,0.50
2018-12-21T12:49:31.110Z,0.50
2018-12-21T12:51:58.563Z,0.50
2018-12-21T12:54:26.041Z,0.50
2018-12-21T12:56:53.490Z,0.50
2018-12-21T12:59:20.934Z,0.60
2018-12-21T13:01:48.385Z,0.50
2018-12-21T13:04:15.870Z,0.60
2018-12-21T13:06:43.318Z,0.50
2018-12-21T13:09:10.769Z,0.60
2018-12-21T13:11:38.208Z,0.60
2018-12-21T13:14:05.677Z,0.50
2018-12-21T13:16:33.178Z,0.70
2018-12-21T13:19:00.628Z,0.60
2018-12-21T13:21:28.069Z,0.50
2018-12-21T13:23:55.538Z,0.50
2018-12-21T13:26:22.977Z,0.73
2018-12-21T13:28:50.456Z,0.50
2018-12-21T13:31:17.907Z,0.50
2018-12-21T13:33:45.353Z,0.57
2018-12-21T13:36:12.850Z,0.70
2018-12-21T13:38:40.468Z,0.50
2018-12-21T13:41:07.923Z,0.53
2018-12-21T13:43:35.374Z,0.50
2018-12-21T13:46:02.862Z,0.50
2018-12-21T13:48:30.350Z,0.50
2018-12-21T13:50:57.804Z,0.50
2018-12-21T13:53:25.290Z,0.50
2018-12-21T13:55:52.747Z,0.50
2018-12-21T13:58:20.204Z,0.60
2018-12-21T14:00:47.701Z,0.60
2018-12-21T14:03:15.209Z,0.60
2018-12-21T14:05:42.654Z,0.60
2018-12-21T14:08:10.089Z,0.50
2018-12-21T14:10:37.550Z,1.60
2018-12-21T14:13:05.029Z,1.97
2018-12-21T14:15:32.549Z,4.73
2018-12-21T14:18:00.090Z,1.97
2018-12-21T14:20:27.565Z,1.00
2018-12-21T14:22:55.014Z,0.90
2018-12-21T14:25:28.814Z,0.60
2018-12-21T14:27:52.853Z,1.10
2018-12-21T14:30:20.305Z,0.53
2018-12-21T14:32:47.775Z,0.60
2018-12-21T14:35:15.226Z,0.60
2018-12-21T14:37:42.701Z,0.60
2018-12-21T14:40:10.145Z,0.60
2018-12-21T14:42:37.673Z,0.57
2018-12-21T14:45:05.754Z,0.60
2018-12-21T14:47:33.218Z,0.40
2018-12-21T14:50:00.675Z,0.60
2018-12-21T14:52:28.146Z,0.60
2018-12-21T14:54:55.594Z,0.70
2018-12-21T14:57:23.078Z,0.50
2018-12-21T14:59:50.641Z,0.60
2018-12-21T15:02:18.102Z,0.50
2018-12-21T15:04:45.551Z,0.60
2018-12-21T15:07:13.008Z,0.60
2018-12-21T15:09:40.474Z,0.60
2018-12-21T15:12:07.932Z,0.60
2018-12-21T15:14:35.395Z,0.50
2018-12-21T15:17:02.843Z,0.50
2018-12-21T15:19:30.314Z,0.60
2018-12-21T15:21:58.250Z,0.50
2018-12-21T15:24:26.806Z,0.70
2018-12-21T15:26:54.366Z,0.70
2018-12-21T15:29:21.806Z,0.50
2018-12-21T15:31:49.288Z,0.50
2018-12-21T15:34:16.743Z,0.93
2018-12-21T15:36:44.191Z,0.60
2018-12-21T15:39:11.768Z,0.50
2018-12-21T15:41:39.263Z,1.40
2018-12-21T15:44:06.786Z,2.10
2018-12-21T15:46:34.273Z,5.00
2018-12-21T15:49:01.810Z,3.87
2018-12-21T15:51:29.376Z,3.57
2018-12-21T15:53:56.829Z,0.50
2018-12-21T15:56:24.297Z,0.60
2018-12-21T15:58:51.817Z,1.00
2018-12-21T16:01:19.296Z,0.70
2018-12-21T16:03:46.820Z,0.67
2018-12-21T16:06:14.320Z,1.10
2018-12-21T16:08:41.783Z,0.60
2018-12-21T16:11:09.233Z,0.70
2018-12-21T16:13:36.684Z,0.50
2018-12-21T16:16:04.222Z,0.50
2018-12-21T16:18:31.806Z,0.63
2018-12-21T16:20:59.271Z,0.60
2018-12-21T16:23:26.783Z,0.60
2018-12-21T16:25:54.227Z,0.60
2018-12-21T16:28:21.687Z,0.70
2018-12-21T16:30:49.142Z,0.60
2018-12-21T16:33:16.593Z,0.70
2018-12-21T16:35:44.033Z,0.50
2018-12-21T16:38:11.485Z,0.60
2018-12-21T16:40:38.966Z,0.50
2018-12-21T16:43:06.396Z,0.50
2018-12-21T16:45:33.863Z,0.60
2018-12-21T16:48:01.309Z,0.70
2018-12-21T16:50:28.766Z,0.50
2018-12-21T16:52:56.257Z,0.50
2018-12-21T16:55:23.701Z,0.50
2018-12-21T16:57:51.147Z,0.50
2018-12-21T17:00:18.606Z,0.63
2018-12-21T17:02:46.084Z,0.60
2018-12-21T17:05:13.614Z,0.60
2018-12-21T17:07:41.059Z,0.60
2018-12-21T17:10:10.694Z,0.50
2018-12-21T17:12:38.180Z,0.50
2018-12-21T17:15:09.128Z,0.50
2018-12-21T17:17:36.612Z,0.60
2018-12-21T17:20:05.973Z,0.50
2018-12-21T17:22:33.426Z,0.53
2018-12-21T17:25:00.889Z,0.60
2018-12-21T17:27:28.341Z,0.60
2018-12-21T17:29:55.795Z,0.60
2018-12-21T17:32:23.240Z,2.23
2018-12-21T17:34:50.713Z,6.40
2018-12-21T17:37:18.161Z,1.53
2018-12-21T17:39:45.609Z,1.10
2018-12-21T17:42:13.058Z,1.10
2018-12-21T17:44:40.547Z,2.30
2018-12-21T17:47:08.032Z,1.43
2018-12-21T17:49:35.491Z,1.27
2018-12-21T17:52:02.938Z,0.90
2018-12-21T17:54:30.419Z,0.90
2018-12-21T17:56:57.882Z,1.00
2018-12-21T17:59:25.531Z,0.90
2018-12-21T18:01:53.121Z,0.90
2018-12-21T18:06:53.820Z,0.60
2018-12-21T18:09:21.347Z,0.90
2018-12-21T18:11:56.987Z,0.80
2018-12-21T18:14:18.265Z,0.80
2018-12-21T18:16:45.731Z,0.70
2018-12-21T18:19:13.173Z,0.60
2018-12-21T18:21:44.511Z,0.60
2018-12-21T18:24:12.000Z,0.60
2018-12-21T18:26:39.460Z,0.60
2018-12-21T18:29:06.934Z,0.73
2018-12-21T18:31:41.007Z,0.70
2018-12-21T18:34:10.244Z,0.60
2018-12-21T18:36:38.608Z,0.70
2018-12-21T18:39:06.358Z,0.70
2018-12-21T18:41:33.805Z,0.70
2018-12-21T18:44:01.278Z,0.63
2018-12-21T18:46:28.769Z,0.90
2018-12-21T18:48:56.261Z,0.80
2018-12-21T18:51:23.719Z,0.63
2018-12-21T18:53:51.170Z,0.60
2018-12-21T18:56:20.701Z,0.70
2018-12-21T18:58:49.336Z,0.77
2018-12-21T19:01:17.017Z,0.70
2018-12-21T19:03:44.477Z,0.70
2018-12-21T19:06:11.926Z,0.50
2018-12-21T19:08:39.397Z,0.60
2018-12-21T19:11:06.904Z,0.67
2018-12-21T19:13:34.365Z,0.70
2018-12-21T19:16:01.829Z,0.70
2018-12-21T19:18:29.289Z,0.60
2018-12-21T19:20:56.768Z,0.60
2018-12-21T19:23:24.235Z,0.70
2018-12-21T19:25:51.748Z,0.60
2018-12-21T19:28:19.202Z,0.50
2018-12-21T19:30:46.670Z,0.60
2018-12-21T19:33:14.124Z,0.60
2018-12-21T19:35:41.590Z,0.60
2018-12-21T19:38:09.092Z,0.50
2018-12-21T19:40:36.549Z,0.80
2018-12-21T19:43:04.084Z,0.60
2018-12-21T19:45:31.609Z,0.70
2018-12-21T19:47:59.086Z,0.80
2018-12-21T19:50:26.638Z,0.80
2018-12-21T19:52:54.121Z,0.60
2018-12-21T19:55:25.433Z,0.60
2018-12-21T19:57:52.884Z,0.60
2018-12-21T20:00:20.383Z,0.50
2018-12-21T20:02:47.876Z,0.50
2018-12-21T20:05:15.333Z,0.60
2018-12-21T20:07:42.789Z,0.53
2018-12-21T20:10:10.961Z,0.63
2018-12-21T20:12:38.435Z,0.50
2018-12-21T20:15:07.320Z,0.60
2018-12-21T20:17:34.777Z,0.67
2018-12-21T20:20:02.309Z,0.50
2018-12-21T20:22:29.830Z,0.70
2018-12-21T20:24:57.295Z,0.70
2018-12-21T20:27:24.735Z,0.63
2018-12-21T20:29:52.212Z,0.60
2018-12-21T20:32:21.895Z,0.70
2018-12-21T20:34:49.120Z,0.93
2018-12-21T20:37:16.629Z,0.80
2018-12-21T20:39:44.122Z,0.70
2018-12-21T20:42:11.640Z,0.80
2018-12-21T20:44:39.097Z,0.70
2018-12-21T20:47:06.560Z,0.80
2018-12-21T20:49:34.008Z,1.20
2018-12-21T20:52:01.464Z,0.90
2018-12-21T20:54:28.988Z,0.70
2018-12-21T20:56:56.530Z,1.20
2018-12-21T20:59:24.009Z,1.00
2018-12-21T21:01:51.509Z,0.90
2018-12-21T21:04:19.004Z,1.00
2018-12-21T21:06:46.458Z,0.90
2018-12-21T21:09:13.916Z,0.80
2018-12-21T21:11:41.426Z,1.00
2018-12-21T21:14:08.891Z,0.83
2018-12-21T21:16:36.380Z,1.00
2018-12-21T21:19:03.943Z,0.70
2018-12-21T21:21:31.396Z,1.23
2018-12-21T21:23:58.868Z,1.20
2018-12-21T21:26:26.319Z,1.13
2018-12-21T21:28:53.764Z,0.80
2018-12-21T21:31:21.217Z,0.80
2018-12-21T21:33:48.712Z,0.87
2018-12-21T21:36:16.165Z,0.80
2018-12-21T21:38:43.646Z,1.10
2018-12-21T21:41:11.137Z,0.70
2018-12-21T21:43:38.593Z,1.33
2018-12-21T21:46:06.088Z,0.70
2018-12-21T21:48:33.524Z,0.60
2018-12-21T21:51:00.974Z,0.70
2018-12-21T21:53:28.440Z,0.70
2018-12-21T21:55:55.926Z,0.90
2018-12-21T21:58:23.381Z,0.60
2018-12-21T22:00:50.866Z,0.60
2018-12-21T22:03:18.343Z,0.60
2018-12-21T22:05:45.791Z,0.60
2018-12-21T22:08:13.240Z,0.60
2018-12-21T22:10:40.693Z,0.60
2018-12-21T22:13:08.141Z,0.70
2018-12-21T22:15:35.589Z,0.60
2018-12-21T22:18:03.114Z,0.70
2018-12-21T22:20:30.651Z,0.60
2018-12-21T22:22:58.113Z,1.37
2018-12-21T22:25:25.564Z,0.70
2018-12-21T22:27:53.065Z,0.70
2018-12-21T22:30:20.513Z,0.80
2018-12-21T22:32:47.985Z,0.70
2018-12-21T22:35:15.446Z,0.70
2018-12-21T22:37:42.929Z,0.60
2018-12-21T22:40:10.419Z,0.77
2018-12-21T22:42:37.906Z,0.80
2018-12-21T22:45:05.940Z,0.73
2018-12-21T22:47:33.398Z,0.60
2018-12-21T22:50:00.855Z,0.60
2018-12-21T22:52:28.302Z,0.60
2018-12-21T22:54:55.790Z,0.70
2018-12-21T22:57:23.244Z,0.60
2018-12-21T22:59:50.692Z,0.70
2018-12-21T23:02:18.138Z,0.60
2018-12-21T23:04:45.681Z,0.70
2018-12-21T23:07:13.112Z,0.63
2018-12-21T23:09:40.585Z,0.77
2018-12-21T23:12:08.037Z,0.63
2018-12-21T23:14:35.573Z,0.60
2018-12-21T23:17:03.026Z,0.70
2018-12-21T23:19:30.504Z,0.60
2018-12-21T23:21:58.023Z,0.60
2018-12-21T23:24:25.559Z,0.70
2018-12-21T23:26:53.073Z,0.80
2018-12-21T23:29:20.555Z,0.63
2018-12-21T23:31:48.010Z,0.70
2018-12-21T23:34:15.454Z,0.70
2018-12-21T23:36:42.922Z,0.70
2018-12-21T23:39:10.372Z,0.80
2018-12-21T23:41:37.852Z,0.63
2018-12-21T23:44:05.314Z,0.80
2018-12-21T23:46:32.773Z,0.60
2018-12-21T23:49:00.231Z,0.70
2018-12-21T23:51:27.704Z,0.80
2018-12-21T23:53:55.163Z,0.50
2018-12-21T23:56:22.622Z,0.90
2018-12-21T23:58:50.078Z,0.70
